Time;durP1;ratioP1;P1;durP2;ratioP2;P2;SDS_P1;SDS_P2;PMS_P1;PMS_P2;Temp;Humidity;BMP_temperature;BMP_pressure;BME280_temperature;BME280_humidity;BME280_pressure;Samples;Min_cycle;Max_cycle;Signal;HPM_P1;HPM_P2
2022/01/06 00:02:04;;;;;;;;;;;;;;;;;;5011564;28;19925;-54
2022/01/06 00:04:29;;;;;;;;;;;;;;;;;;5010624;28;19964;-55
2022/01/06 00:06:55;;;;;;;;;;;;;;;;;;5012404;28;20609;-53
2022/01/06 00:09:21;;;;;;;;;;;;;;;;;;5009853;28;20468;-52
2022/01/06 00:11:46;;;;;;;;;;;;;;;;;;5010622;28;19921;-56
2022/01/06 00:15:05;;;;;;;;;;;;;;;;;;5010173;28;19929;-52
2022/01/06 00:17:15;;;;;;;;;;;;;;;;;;5006988;28;19921;-51
2022/01/06 00:25:08;;;;;;;;;;;;;;;;;;5006390;28;19936;-53
2022/01/06 00:27:34;;;;;;;;;;;;;;;;;;5004792;28;19921;-51
2022/01/06 00:29:59;;;;;;;;;;;;;;;;;;5004507;28;20011;-52
2022/01/06 00:32:25;;;;;;;;;;;;;;;;;;5007751;28;20878;-54
2022/01/06 00:34:50;;;;;;;;;;;;;;;;;;5015291;28;19940;-53
2022/01/06 00:37:18;;;;;;;;;;;;;;;;;;5046646;28;20300;-51
2022/01/06 00:39:44;;;;;;;;;;;;;;;;;;5015847;28;19922;-51
2022/01/06 00:42:09;;;;;;;;;;;;;;;;;;5016173;28;19926;-55
2022/01/06 00:44:35;;;;;;;;;;;;;;;;;;5013636;28;19921;-53
2022/01/06 00:47:00;;;;;;;;;;;;;;;;;;5013020;28;20016;-52
2022/01/06 00:49:26;;;;;;;;;;;;;;;;;;5003557;28;20825;-51
2022/01/06 00:51:51;;;;;;;;;;;;;;;;;;5004876;28;19973;-53
2022/01/06 00:54:16;;;;;;;;;;;;;;;;;;5003822;28;19929;-52
2022/01/06 00:56:42;;;;;;;;;;;;;;;;;;5003721;28;19922;-53
2022/01/06 00:59:07;;;;;;;;;;;;;;;;;;5002656;28;19932;-52
2022/01/06 01:01:33;;;;;;;;;;;;;;;;;;5001494;28;20613;-53
2022/01/06 01:03:58;;;;;;;;;;;;;;;;;;5003786;28;19931;-54
2022/01/06 01:06:23;;;;;;;;;;;;;;;;;;5003166;28;19928;-51
2022/01/06 01:08:49;;;;;;;;;;;;;;;;;;5006801;28;19993;-52
2022/01/06 01:11:14;;;;;;;;;;;;;;;;;;5005224;28;20004;-54
2022/01/06 01:13:54;;;;;;;;;;;;;;;;;;5003147;28;19930;-50
2022/01/06 01:16:26;;;;;;;;;;;;;;;;;;4998481;28;20107;-53
2022/01/06 01:18:52;;;;;;;;;;;;;;;;;;4999968;28;19927;-52
2022/01/06 01:21:18;;;;;;;;;;;;;;;;;;5002648;28;19925;-53
2022/01/06 01:23:44;;;;;;;;;;;;;;;;;;5003553;28;19983;-53
2022/01/06 01:26:09;;;;;;;;;;;;;;;;;;5003312;28;19921;-53
2022/01/06 01:28:43;;;;;;;;;;;;;;;;;;5004099;28;20094;-53
2022/01/06 01:33:43;;;;;;;;;;;;;;;;;;5005344;28;19940;-51
2022/01/06 01:36:09;;;;;;;;;;;;;;;;;;5006317;28;20294;-51
2022/01/06 01:38:36;;;;;;;;;;;;;;;;;;5003563;28;19925;-52
2022/01/06 01:41:02;;;;;;;;;;;;;;;;;;5005529;28;20393;-53
2022/01/06 01:43:27;;;;;;;;;;;;;;;;;;5005268;28;19959;-51
2022/01/06 01:45:57;;;;;;;;;;;;;;;;;;5036836;28;19932;-52
2022/01/06 01:48:29;;;;;;;;;;;;;;;;;;5004068;28;19925;-53
2022/01/06 01:50:54;;;;;;;;;;;;;;;;;;5005926;28;19924;-55
2022/01/06 01:53:19;;;;;;;;;;;;;;;;;;5002525;28;19930;-53
2022/01/06 01:55:45;;;;;;;;;;;;;;;;;;5004086;28;19995;-52
2022/01/06 01:58:10;;;;;;;;;;;;;;;;;;5003572;28;19944;-52
2022/01/06 02:00:36;;;;;;;;;;;;;;;;;;5004463;28;19922;-52
2022/01/06 02:03:01;;;;;;;;;;;;;;;;;;5004971;28;19931;-53
2022/01/06 02:05:28;;;;;;;;;;;;;;;;;;5005383;28;19921;-52
2022/01/06 02:07:53;;;;;;;;;;;;;;;;;;5003989;28;19926;-54
2022/01/06 02:10:20;;;;;;;;;;;;;;;;;;5003416;28;19921;-52
2022/01/06 02:12:48;;;;;;;;;;;;;;;;;;5006697;28;19921;-52
2022/01/06 02:15:13;;;;;;;;;;;;;;;;;;5004803;28;20499;-51
2022/01/06 02:17:39;;;;;;;;;;;;;;;;;;5002415;28;19921;-53
2022/01/06 02:20:04;;;;;;;;;;;;;;;;;;5002666;28;19925;-53
2022/01/06 02:22:29;;;;;;;;;;;;;;;;;;5002879;28;19929;-52
2022/01/06 02:24:55;;;;;;;;;;;;;;;;;;5004832;28;20179;-51
2022/01/06 02:27:20;;;;;;;;;;;;;;;;;;5005521;28;20027;-52
2022/01/06 02:29:46;;;;;;;;;;;;;;;;;;5004716;28;19925;-52
2022/01/06 02:32:15;;;;;;;;;;;;;;;;;;5005305;28;20597;-54
2022/01/06 02:34:40;;;;;;;;;;;;;;;;;;5003756;28;20012;-53
2022/01/06 02:37:06;;;;;;;;;;;;;;;;;;5006264;28;20032;-51
2022/01/06 02:39:31;;;;;;;;;;;;;;;;;;5004684;28;20382;-55
2022/01/06 02:41:56;;;;;;;;;;;;;;;;;;5004698;28;19979;-52
2022/01/06 02:44:24;;;;;;;;;;;;;;;;;;5004545;28;20060;-53
2022/01/06 02:46:50;;;;;;;;;;;;;;;;;;5006871;28;20401;-52
2022/01/06 02:49:15;;;;;;;;;;;;;;;;;;5002688;28;19926;-51
2022/01/06 02:51:41;;;;;;;;;;;;;;;;;;5005150;28;19921;-51
2022/01/06 02:54:06;;;;;;;;;;;;;;;;;;5004483;28;19940;-53
2022/01/06 02:56:32;;;;;;;;;;;;;;;;;;5004490;28;20398;-54
2022/01/06 02:58:58;;;;;;;;;;;;;;;;;;5002537;28;19933;-53
2022/01/06 03:01:23;;;;;;;;;;;;;;;;;;5002899;28;19933;-51
2022/01/06 03:03:49;;;;;;;;;;;;;;;;;;5005047;28;20460;-53
2022/01/06 03:06:14;;;;;;;;;;;;;;;;;;5004764;28;19959;-51
2022/01/06 03:08:40;;;;;;;;;;;;;;;;;;5005108;28;20000;-50
2022/01/06 03:11:07;;;;;;;;;;;;;;;;;;5003892;28;20528;-51
2022/01/06 03:13:32;;;;;;;;;;;;;;;;;;5005449;28;19940;-52
2022/01/06 03:15:58;;;;;;;;;;;;;;;;;;5004717;28;20173;-54
2022/01/06 03:18:23;;;;;;;;;;;;;;;;;;5003435;28;20758;-54
2022/01/06 03:20:48;;;;;;;;;;;;;;;;;;5006299;28;19925;-50
2022/01/06 03:23:14;;;;;;;;;;;;;;;;;;5004888;28;20402;-51
2022/01/06 03:25:39;;;;;;;;;;;;;;;;;;5003177;28;19926;-51
2022/01/06 03:28:05;;;;;;;;;;;;;;;;;;5002399;28;19987;-53
2022/01/06 03:30:30;;;;;;;;;;;;;;;;;;4997784;28;19979;-53
2022/01/06 03:32:55;;;;;;;;;;;;;;;;;;5006173;28;19929;-51
2022/01/06 03:35:21;;;;;;;;;;;;;;;;;;5005336;28;19937;-51
2022/01/06 03:37:46;;;;;;;;;;;;;;;;;;5039373;28;19967;-54
2022/01/06 03:40:12;;;;;;;;;;;;;;;;;;5006198;28;19952;-53
2022/01/06 03:42:37;;;;;;;;;;;;;;;;;;5000644;28;19926;-52
2022/01/06 03:45:03;;;;;;;;;;;;;;;;;;5028827;28;20535;-53
2022/01/06 03:47:28;;;;;;;;;;;;;;;;;;5003795;28;20034;-53
2022/01/06 03:49:53;;;;;;;;;;;;;;;;;;5001816;28;19922;-53
2022/01/06 03:52:19;;;;;;;;;;;;;;;;;;5003529;28;20306;-51
2022/01/06 03:54:44;;;;;;;;;;;;;;;;;;5003055;28;21027;-51
2022/01/06 03:57:09;;;;;;;;;;;;;;;;;;5002080;28;19926;-54
2022/01/06 03:59:35;;;;;;;;;;;;;;;;;;4999396;28;19988;-54
2022/01/06 04:02:01;;;;;;;;;;;;;;;;;;5004038;28;19924;-52
2022/01/06 04:04:26;;;;;;;;;;;;;;;;;;5001545;28;20445;-51
2022/01/06 04:06:52;;;;;;;;;;;;;;;;;;5001965;28;19925;-52
2022/01/06 04:09:17;;;;;;;;;;;;;;;;;;5002001;28;19952;-52
2022/01/06 04:11:43;;;;;;;;;;;;;;;;;;5002854;28;19932;-53
2022/01/06 04:14:08;;;;;;;;;;;;;;;;;;5003501;28;19980;-51
2022/01/06 04:16:59;;;;;;;;;;;;;;;;;;5009012;28;19925;-54
2022/01/06 04:19:25;;;;;;;;;;;;;;;;;;5009198;28;19928;-51
2022/01/06 04:21:50;;;;;;;;;;;;;;;;;;5009835;28;19925;-51
2022/01/06 04:24:16;;;;;;;;;;;;;;;;;;5010326;28;19925;-51
2022/01/06 04:26:41;;;;;;;;;;;;;;;;;;5009415;28;20333;-50
2022/01/06 04:29:06;;;;;;;;;;;;;;;;;;5009252;28;21206;-50
2022/01/06 04:31:32;;;;;;;;;;;;;;;;;;4996656;28;19935;-54
2022/01/06 04:33:57;;;;;;;;;;;;;;;;;;5010879;28;20288;-51
2022/01/06 04:36:23;;;;;;;;;;;;;;;;;;5009288;28;20697;-52
2022/01/06 04:38:48;;;;;;;;;;;;;;;;;;5010152;28;20040;-51
2022/01/06 04:41:13;;;;;;;;;;;;;;;;;;5011716;28;20011;-54
2022/01/06 04:43:39;;;;;;;;;;;;;;;;;;5010220;28;20023;-51
2022/01/06 04:46:04;;;;;;;;;;;;;;;;;;5011401;28;19987;-51
2022/01/06 04:48:30;;;;;;;;;;;;;;;;;;5011146;28;20473;-51
2022/01/06 04:50:55;;;;;;;;;;;;;;;;;;5011251;28;20031;-53
2022/01/06 04:53:20;;;;;;;;;;;;;;;;;;5011908;28;19941;-52
2022/01/06 04:55:46;;;;;;;;;;;;;;;;;;5037692;28;19936;-52
2022/01/06 04:58:11;;;;;;;;;;;;;;;;;;5009256;28;19956;-55
2022/01/06 05:00:37;;;;;;;;;;;;;;;;;;5013676;28;19933;-52
2022/01/06 05:03:02;;;;;;;;;;;;;;;;;;5021678;28;19928;-51
2022/01/06 05:05:28;;;;;;;;;;;;;;;;;;5054291;28;20511;-51
2022/01/06 05:07:53;;;;;;;;;;;;;;;;;;5025120;28;19972;-52
2022/01/06 05:10:18;;;;;;;;;;;;;;;;;;5017968;28;19925;-53
2022/01/06 05:12:44;;;;;;;;;;;;;;;;;;5021331;28;19966;-52
2022/01/06 05:15:09;;;;;;;;;;;;;;;;;;5013851;28;19936;-51
2022/01/06 05:17:35;;;;;;;;;;;;;;;;;;5007405;28;19925;-52
2022/01/06 05:20:00;;;;;;;;;;;;;;;;;;5007059;28;20012;-53
2022/01/06 05:22:26;;;;;;;;;;;;;;;;;;5006857;28;20467;-52
2022/01/06 05:24:53;;;;;;;;;;;;;;;;;;5009199;28;19952;-54
2022/01/06 05:27:19;;;;;;;;;;;;;;;;;;5006836;28;19929;-53
2022/01/06 05:29:44;;;;;;;;;;;;;;;;;;5006476;28;20275;-55
2022/01/06 05:32:11;;;;;;;;;;;;;;;;;;5007224;28;20052;-54
2022/01/06 05:34:36;;;;;;;;;;;;;;;;;;5007146;28;19940;-54
2022/01/06 05:37:02;;;;;;;;;;;;;;;;;;5005715;28;19921;-52
2022/01/06 05:39:27;;;;;;;;;;;;;;;;;;5004196;28;19924;-51
2022/01/06 05:41:52;;;;;;;;;;;;;;;;;;5005224;28;19944;-50
2022/01/06 05:44:18;;;;;;;;;;;;;;;;;;5006112;28;19925;-52
2022/01/06 05:46:45;;;;;;;;;;;;;;;;;;5007432;28;19957;-51
2022/01/06 05:49:11;;;;;;;;;;;;;;;;;;5037293;28;19928;-51
2022/01/06 05:51:36;;;;;;;;;;;;;;;;;;5004841;28;19921;-49
2022/01/06 05:54:02;;;;;;;;;;;;;;;;;;5007266;28;19969;-53
2022/01/06 05:56:28;;;;;;;;;;;;;;;;;;5009682;28;19960;-51
2022/01/06 05:58:54;;;;;;;;;;;;;;;;;;5007226;28;19948;-51
2022/01/06 06:01:19;;;;;;;;;;;;;;;;;;5006395;28;19925;-49
2022/01/06 06:03:45;;;;;;;;;;;;;;;;;;5005977;28;19921;-50
2022/01/06 06:06:10;;;;;;;;;;;;;;;;;;5006835;28;20436;-52
2022/01/06 06:08:35;;;;;;;;;;;;;;;;;;5005968;28;19917;-49
2022/01/06 06:11:01;;;;;;;;;;;;;;;;;;5005627;28;20756;-53
2022/01/06 06:13:26;;;;;;;;;;;;;;;;;;5003510;28;19940;-52
2022/01/06 06:15:52;;;;;;;;;;;;;;;;;;5006600;28;19927;-51
2022/01/06 06:18:17;;;;;;;;;;;;;;;;;;5004225;28;19980;-52
2022/01/06 06:20:42;;;;;;;;;;;;;;;;;;5005598;28;19925;-51
2022/01/06 06:23:08;;;;;;;;;;;;;;;;;;5006373;28;19929;-50
2022/01/06 06:25:33;;;;;;;;;;;;;;;;;;5005964;28;19921;-50
2022/01/06 06:27:59;;;;;;;;;;;;;;;;;;5004803;28;20637;-50
2022/01/06 06:30:24;;;;;;;;;;;;;;;;;;5000773;28;19917;-50
2022/01/06 06:32:49;;;;;;;;;;;;;;;;;;5004985;28;19983;-50
2022/01/06 06:35:15;;;;;;;;;;;;;;;;;;5005056;28;20291;-53
2022/01/06 06:37:40;;;;;;;;;;;;;;;;;;5006280;28;19959;-51
2022/01/06 06:40:06;;;;;;;;;;;;;;;;;;5004495;28;19987;-51
2022/01/06 06:42:31;;;;;;;;;;;;;;;;;;5003063;28;20413;-52
2022/01/06 06:44:57;;;;;;;;;;;;;;;;;;5007648;28;19921;-51
2022/01/06 06:47:22;;;;;;;;;;;;;;;;;;5004587;28;19921;-52
2022/01/06 06:49:47;;;;;;;;;;;;;;;;;;5005819;28;19922;-52
2022/01/06 06:52:13;;;;;;;;;;;;;;;;;;5005241;28;19961;-53
2022/01/06 06:54:38;;;;;;;;;;;;;;;;;;5004673;28;19961;-55
2022/01/06 06:57:04;;;;;;;;;;;;;;;;;;5005594;28;19921;-54
2022/01/06 06:59:29;;;;;;;;;;;;;;;;;;5004688;28;20028;-52
2022/01/06 07:01:54;;;;;;;;;;;;;;;;;;5003878;28;19952;-53
2022/01/06 07:04:20;;;;;;;;;;;;;;;;;;5034885;28;19972;-51
2022/01/06 07:06:45;;;;;;;;;;;;;;;;;;5005175;28;19931;-50
2022/01/06 07:09:11;;;;;;;;;;;;;;;;;;5005634;28;19921;-50
2022/01/06 07:11:37;;;;;;;;;;;;;;;;;;5034834;28;20066;-53
2022/01/06 07:14:02;;;;;;;;;;;;;;;;;;5002907;28;20865;-52
2022/01/06 07:16:27;;;;;;;;;;;;;;;;;;5003745;28;20016;-50
2022/01/06 07:18:53;;;;;;;;;;;;;;;;;;5033352;28;20059;-49
2022/01/06 07:21:18;;;;;;;;;;;;;;;;;;5003658;28;19928;-53
2022/01/06 07:23:44;;;;;;;;;;;;;;;;;;5002874;28;20477;-50
2022/01/06 07:26:09;;;;;;;;;;;;;;;;;;5003145;28;19921;-53
2022/01/06 07:28:34;;;;;;;;;;;;;;;;;;5002341;28;21894;-52
2022/01/06 07:31:00;;;;;;;;;;;;;;;;;;5035324;28;19973;-49
2022/01/06 07:33:25;;;;;;;;;;;;;;;;;;5004038;28;19984;-50
2022/01/06 07:35:51;;;;;;;;;;;;;;;;;;5004666;28;19956;-53
2022/01/06 07:38:17;;;;;;;;;;;;;;;;;;5003198;28;19917;-51
2022/01/06 07:40:43;;;;;;;;;;;;;;;;;;5004154;28;20335;-51
2022/01/06 07:43:08;;;;;;;;;;;;;;;;;;5002388;28;19976;-53
2022/01/06 07:45:33;;;;;;;;;;;;;;;;;;5002575;28;19976;-51
2022/01/06 07:48:02;;;;;;;;;;;;;;;;;;5003132;28;20000;-51
2022/01/06 07:50:27;;;;;;;;;;;;;;;;;;5002314;28;19925;-53
2022/01/06 07:52:53;;;;;;;;;;;;;;;;;;5002991;28;20708;-51
2022/01/06 07:55:18;;;;;;;;;;;;;;;;;;5002896;28;19936;-50
2022/01/06 07:57:44;;;;;;;;;;;;;;;;;;5002916;28;19921;-51
2022/01/06 08:00:09;;;;;;;;;;;;;;;;;;5003313;28;19926;-50
2022/01/06 08:02:35;;;;;;;;;;;;;;;;;;5001912;28;19933;-52
2022/01/06 08:05:00;;;;;;;;;;;;;;;;;;5004777;28;19922;-52
2022/01/06 08:07:25;;;;;;;;;;;;;;;;;;5004875;28;19926;-52
2022/01/06 08:09:51;;;;;;;;;;;;;;;;;;5001473;28;19944;-50
2022/01/06 08:12:16;;;;;;;;;;;;;;;;;;5002229;28;19925;-50
2022/01/06 08:14:41;;;;;;;;;;;;;;;;;;5034410;28;19961;-50
2022/01/06 08:17:07;;;;;;;;;;;;;;;;;;5002668;28;20030;-49
2022/01/06 08:19:32;;;;;;;;;;;;;;;;;;5001278;28;19944;-51
2022/01/06 08:21:58;;;;;;;;;;;;;;;;;;5003196;28;21565;-49
2022/01/06 08:24:23;;;;;;;;;;;;;;;;;;5002962;28;20016;-51
2022/01/06 08:26:49;;;;;;;;;;;;;;;;;;5002588;28;19925;-52
2022/01/06 08:29:14;;;;;;;;;;;;;;;;;;5004774;28;20489;-49
2022/01/06 08:31:39;;;;;;;;;;;;;;;;;;5003032;28;19939;-50
2022/01/06 08:34:05;;;;;;;;;;;;;;;;;;5003585;28;19934;-49
2022/01/06 08:36:30;;;;;;;;;;;;;;;;;;5000539;28;20569;-54
2022/01/06 08:38:56;;;;;;;;;;;;;;;;;;5032942;28;19925;-51
2022/01/06 08:41:21;;;;;;;;;;;;;;;;;;5001356;28;20358;-51
2022/01/06 08:43:46;;;;;;;;;;;;;;;;;;5003363;28;19991;-51
2022/01/06 08:46:12;;;;;;;;;;;;;;;;;;5005105;28;20016;-54
2022/01/06 08:48:37;;;;;;;;;;;;;;;;;;5004367;28;20008;-50
2022/01/06 08:51:03;;;;;;;;;;;;;;;;;;5006266;28;19926;-51
2022/01/06 08:53:28;;;;;;;;;;;;;;;;;;5014973;28;19948;-53
2022/01/06 08:55:53;;;;;;;;;;;;;;;;;;5010740;28;19933;-53
2022/01/06 08:58:19;;;;;;;;;;;;;;;;;;5001712;28;19925;-52
2022/01/06 09:00:44;;;;;;;;;;;;;;;;;;5003835;28;19921;-51
2022/01/06 09:03:10;;;;;;;;;;;;;;;;;;5003510;28;20298;-54
2022/01/06 09:05:35;;;;;;;;;;;;;;;;;;5001071;28;20047;-52
2022/01/06 09:08:01;;;;;;;;;;;;;;;;;;5001061;28;19949;-50
2022/01/06 09:10:29;;;;;;;;;;;;;;;;;;5029313;28;20015;-51
2022/01/06 09:12:55;;;;;;;;;;;;;;;;;;5003151;28;19968;-50
2022/01/06 09:15:20;;;;;;;;;;;;;;;;;;5003998;28;19921;-53
2022/01/06 09:17:46;;;;;;;;;;;;;;;;;;4999921;28;19931;-53
2022/01/06 09:20:11;;;;;;;;;;;;;;;;;;5002455;28;19926;-50
2022/01/06 09:22:36;;;;;;;;;;;;;;;;;;5003310;28;20282;-50
2022/01/06 09:25:02;;;;;;;;;;;;;;;;;;5001411;28;19933;-51
2022/01/06 09:27:29;;;;;;;;;;;;;;;;;;5001894;28;19921;-51
2022/01/06 09:29:55;;;;;;;;;;;;;;;;;;5003502;28;20088;-50
2022/01/06 09:32:20;;;;;;;;;;;;;;;;;;5002010;28;20311;-50
2022/01/06 09:34:46;;;;;;;;;;;;;;;;;;5002321;28;20581;-53
2022/01/06 09:37:11;;;;;;;;;;;;;;;;;;5003526;28;19929;-53
2022/01/06 09:39:37;;;;;;;;;;;;;;;;;;4999765;28;19925;-54
2022/01/06 09:42:02;;;;;;;;;;;;;;;;;;5002961;28;19959;-51
2022/01/06 09:44:27;;;;;;;;;;;;;;;;;;5003463;28;20409;-52
2022/01/06 09:46:55;;;;;;;;;;;;;;;;;;5006075;28;19977;-51
2022/01/06 09:49:20;;;;;;;;;;;;;;;;;;5006540;28;20445;-53
2022/01/06 09:51:46;;;;;;;;;;;;;;;;;;5008487;28;19972;-49
2022/01/06 09:54:12;;;;;;;;;;;;;;;;;;5008511;28;20365;-49
2022/01/06 09:56:37;;;;;;;;;;;;;;;;;;5040802;28;19944;-50
2022/01/06 09:59:02;;;;;;;;;;;;;;;;;;5011650;28;19921;-53
2022/01/06 10:01:28;;;;;;;;;;;;;;;;;;5008315;28;19918;-51
2022/01/06 10:03:53;;;;;;;;;;;;;;;;;;5012549;28;19984;-49
2022/01/06 10:06:19;;;;;;;;;;;;;;;;;;5009627;28;19936;-52
2022/01/06 10:08:44;;;;;;;;;;;;;;;;;;5008754;28;20135;-52
2022/01/06 10:11:10;;;;;;;;;;;;;;;;;;5007537;28;19925;-50
2022/01/06 10:13:35;;;;;;;;;;;;;;;;;;5006547;28;20354;-51
2022/01/06 10:16:01;;;;;;;;;;;;;;;;;;5006399;28;20299;-51
2022/01/06 10:18:26;;;;;;;;;;;;;;;;;;5006241;28;19964;-51
2022/01/06 10:20:52;;;;;;;;;;;;;;;;;;5005795;28;19965;-50
2022/01/06 10:23:18;;;;;;;;;;;;;;;;;;5006532;28;20324;-50
2022/01/06 10:25:52;;;;;;;;;;;;;;;;;;5005569;28;19922;-54
2022/01/06 10:28:17;;;;;;;;;;;;;;;;;;5003036;28;19925;-52
2022/01/06 10:30:48;;;;;;;;;;;;;;;;;;5007255;28;19971;-50
2022/01/06 10:33:13;;;;;;;;;;;;;;;;;;5005286;28;20298;-50
2022/01/06 10:35:38;;;;;;;;;;;;;;;;;;5003915;28;20325;-52
2022/01/06 10:38:04;;;;;;;;;;;;;;;;;;5035909;28;19928;-50
2022/01/06 10:40:29;;;;;;;;;;;;;;;;;;5004800;28;20036;-53
2022/01/06 10:42:54;;;;;;;;;;;;;;;;;;5004536;28;20313;-50
2022/01/06 10:45:25;;;;;;;;;;;;;;;;;;5006766;28;20012;-51
2022/01/06 10:47:50;;;;;;;;;;;;;;;;;;5004074;28;19941;-50
2022/01/06 10:50:16;;;;;;;;;;;;;;;;;;5004383;28;20458;-51
2022/01/06 10:52:41;;;;;;;;;;;;;;;;;;5004355;28;19926;-53
2022/01/06 10:55:06;;;;;;;;;;;;;;;;;;5004413;28;20425;-50
2022/01/06 10:57:32;;;;;;;;;;;;;;;;;;5005736;28;19957;-49
2022/01/06 10:59:57;;;;;;;;;;;;;;;;;;5033548;28;20012;-50
2022/01/06 11:02:23;;;;;;;;;;;;;;;;;;5004311;28;19921;-51
2022/01/06 11:04:48;;;;;;;;;;;;;;;;;;5006939;28;20596;-50
2022/01/06 11:07:13;;;;;;;;;;;;;;;;;;5005393;28;19933;-50
2022/01/06 11:09:40;;;;;;;;;;;;;;;;;;5002051;28;21940;-50
2022/01/06 11:14:49;;;;;;;;;;;;;;;;;;5003386;28;19976;-52
2022/01/06 11:17:15;;;;;;;;;;;;;;;;;;5002771;28;19920;-50
2022/01/06 11:19:40;;;;;;;;;;;;;;;;;;5003547;28;19980;-53
2022/01/06 11:22:06;;;;;;;;;;;;;;;;;;5004855;28;20451;-52
2022/01/06 11:24:32;;;;;;;;;;;;;;;;;;5005616;28;20554;-51
2022/01/06 11:26:57;;;;;;;;;;;;;;;;;;5003860;28;19933;-50
2022/01/06 11:29:43;;;;;;;;;;;;;;;;;;5061414;28;19980;-50
2022/01/06 11:32:08;;;;;;;;;;;;;;;;;;5061683;28;19932;-50
2022/01/06 11:34:33;;;;;;;;;;;;;;;;;;5058550;28;19935;-50
2022/01/06 11:36:59;;;;;;;;;;;;;;;;;;5062067;28;19925;-50
2022/01/06 11:39:24;;;;;;;;;;;;;;;;;;5077790;28;20015;-51
2022/01/06 11:41:51;;;;;;;;;;;;;;;;;;5078756;28;19925;-51
2022/01/06 11:44:17;;;;;;;;;;;;;;;;;;5059465;28;19921;-51
2022/01/06 11:46:42;;;;;;;;;;;;;;;;;;5064457;28;20418;-51
2022/01/06 11:49:08;;;;;;;;;;;;;;;;;;5060858;28;19920;-52
2022/01/06 11:51:34;;;;;;;;;;;;;;;;;;5059839;28;19930;-51
2022/01/06 11:53:59;;;;;;;;;;;;;;;;;;5060600;28;19968;-51
2022/01/06 11:56:25;;;;;;;;;;;;;;;;;;5060129;28;20026;-50
2022/01/06 11:58:50;;;;;;;;;;;;;;;;;;5061713;28;21731;-50
2022/01/06 12:01:16;;;;;;;;;;;;;;;;;;5076408;28;20533;-53
2022/01/06 12:03:41;;;;;;;;;;;;;;;;;;5058293;28;19917;-50
2022/01/06 12:06:07;;;;;;;;;;;;;;;;;;5055828;28;20353;-53
2022/01/06 12:08:32;;;;;;;;;;;;;;;;;;5003661;28;20277;-50
2022/01/06 12:10:57;;;;;;;;;;;;;;;;;;5003062;28;19961;-50
2022/01/06 12:13:23;;;;;;;;;;;;;;;;;;5003564;28;19967;-50
2022/01/06 12:15:48;;;;;;;;;;;;;;;;;;5004758;28;19976;-53
2022/01/06 12:18:14;;;;;;;;;;;;;;;;;;5002272;28;19925;-51
2022/01/06 12:20:39;;;;;;;;;;;;;;;;;;5003366;28;19965;-50
2022/01/06 12:23:04;;;;;;;;;;;;;;;;;;5004009;28;19940;-51
2022/01/06 12:25:30;;;;;;;;;;;;;;;;;;5002353;28;20382;-52
2022/01/06 12:27:55;;;;;;;;;;;;;;;;;;5004391;28;19933;-51
2022/01/06 12:30:21;;;;;;;;;;;;;;;;;;5004924;28;19928;-51
2022/01/06 12:32:47;;;;;;;;;;;;;;;;;;5006675;28;19965;-51
2022/01/06 12:35:12;;;;;;;;;;;;;;;;;;5005056;28;19936;-51
2022/01/06 12:37:38;;;;;;;;;;;;;;;;;;5004088;28;19921;-53
2022/01/06 12:40:03;;;;;;;;;;;;;;;;;;5001814;28;20422;-50
2022/01/06 12:42:28;;;;;;;;;;;;;;;;;;5002832;28;19949;-53
2022/01/06 12:44:54;;;;;;;;;;;;;;;;;;5003443;28;19998;-51
2022/01/06 12:47:20;;;;;;;;;;;;;;;;;;5004258;28;19917;-49
2022/01/06 12:49:45;;;;;;;;;;;;;;;;;;5003708;28;19921;-51
2022/01/06 12:52:10;;;;;;;;;;;;;;;;;;5003438;28;19979;-51
2022/01/06 12:54:37;;;;;;;;;;;;;;;;;;5000642;28;19932;-52
2022/01/06 12:57:02;;;;;;;;;;;;;;;;;;5003430;28;19921;-51
2022/01/06 12:59:33;;;;;;;;;;;;;;;;;;5002268;28;19921;-50
2022/01/06 13:01:59;;;;;;;;;;;;;;;;;;5001598;28;19921;-49
2022/01/06 13:04:27;;;;;;;;;;;;;;;;;;5001292;28;19932;-49
2022/01/06 13:06:52;;;;;;;;;;;;;;;;;;5004783;28;20000;-53
2022/01/06 13:09:18;;;;;;;;;;;;;;;;;;5002358;28;20746;-52
2022/01/06 13:11:47;;;;;;;;;;;;;;;;;;5005521;28;20402;-52
2022/01/06 13:14:13;;;;;;;;;;;;;;;;;;5005190;28;20006;-50
2022/01/06 13:16:38;;;;;;;;;;;;;;;;;;5003991;28;19928;-50
2022/01/06 13:19:04;;;;;;;;;;;;;;;;;;5003023;28;19932;-52
2022/01/06 13:21:31;;;;;;;;;;;;;;;;;;5004375;28;20428;-51
2022/01/06 13:23:56;;;;;;;;;;;;;;;;;;5007036;28;19955;-52
2022/01/06 13:26:22;;;;;;;;;;;;;;;;;;5004738;28;21422;-53
2022/01/06 13:28:47;;;;;;;;;;;;;;;;;;5007031;28;19936;-54
2022/01/06 13:31:12;;;;;;;;;;;;;;;;;;5003870;28;19933;-52
2022/01/06 13:33:38;;;;;;;;;;;;;;;;;;5005566;28;20940;-51
2022/01/06 13:36:03;;;;;;;;;;;;;;;;;;5008458;28;19917;-51
2022/01/06 13:38:29;;;;;;;;;;;;;;;;;;5009067;28;19936;-53
2022/01/06 13:40:54;;;;;;;;;;;;;;;;;;5018808;28;19917;-51
2022/01/06 13:43:20;;;;;;;;;;;;;;;;;;5048458;28;19944;-53
2022/01/06 13:45:48;;;;;;;;;;;;;;;;;;5008604;28;19925;-52
2022/01/06 13:48:39;;;;;;;;;;;;;;;;;;5010343;28;19921;-49
2022/01/06 13:51:05;;;;;;;;;;;;;;;;;;5011637;28;19926;-49
2022/01/06 13:53:31;;;;;;;;;;;;;;;;;;5006137;28;20390;-50
2022/01/06 13:55:56;;;;;;;;;;;;;;;;;;5010296;28;21798;-49
2022/01/06 13:58:22;;;;;;;;;;;;;;;;;;5007015;28;20563;-52
2022/01/06 14:00:47;;;;;;;;;;;;;;;;;;5008533;28;19922;-50
2022/01/06 14:03:13;;;;;;;;;;;;;;;;;;5005544;28;19925;-51
2022/01/06 14:05:38;;;;;;;;;;;;;;;;;;5005747;28;19921;-51
2022/01/06 14:08:04;;;;;;;;;;;;;;;;;;5007660;28;20462;-51
2022/01/06 14:10:29;;;;;;;;;;;;;;;;;;5009176;28;19933;-51
2022/01/06 14:12:54;;;;;;;;;;;;;;;;;;4997161;28;19980;-52
2022/01/06 14:15:20;;;;;;;;;;;;;;;;;;4993779;28;19930;-51
2022/01/06 14:17:45;;;;;;;;;;;;;;;;;;4996338;28;19925;-50
2022/01/06 14:20:11;;;;;;;;;;;;;;;;;;4996407;28;19974;-51
2022/01/06 14:22:36;;;;;;;;;;;;;;;;;;4997475;28;20251;-51
2022/01/06 14:25:01;;;;;;;;;;;;;;;;;;4996375;28;19932;-50
2022/01/06 14:27:27;;;;;;;;;;;;;;;;;;4997735;28;20306;-51
2022/01/06 14:29:52;;;;;;;;;;;;;;;;;;4997553;28;20018;-51
2022/01/06 14:32:18;;;;;;;;;;;;;;;;;;4995064;28;20394;-51
2022/01/06 14:34:43;;;;;;;;;;;;;;;;;;4994903;28;19956;-51
2022/01/06 14:37:08;;;;;;;;;;;;;;;;;;4995851;28;19932;-50
2022/01/06 14:39:34;;;;;;;;;;;;;;;;;;4995282;28;19928;-50
2022/01/06 14:41:59;;;;;;;;;;;;;;;;;;4996168;28;19925;-52
2022/01/06 14:44:25;;;;;;;;;;;;;;;;;;4995220;28;19921;-52
2022/01/06 14:46:50;;;;;;;;;;;;;;;;;;4996054;28;19925;-50
2022/01/06 14:49:15;;;;;;;;;;;;;;;;;;4996487;28;20016;-51
2022/01/06 14:51:41;;;;;;;;;;;;;;;;;;4996125;28;20060;-51
2022/01/06 14:54:06;;;;;;;;;;;;;;;;;;5027226;28;19933;-53
2022/01/06 14:56:32;;;;;;;;;;;;;;;;;;4995695;28;20357;-49
2022/01/06 14:58:57;;;;;;;;;;;;;;;;;;4996135;28;19926;-50
2022/01/06 15:01:23;;;;;;;;;;;;;;;;;;4994925;28;19921;-49
2022/01/06 15:03:48;;;;;;;;;;;;;;;;;;4991719;28;19933;-51
2022/01/06 15:06:13;;;;;;;;;;;;;;;;;;4996140;28;20077;-52
2022/01/06 15:08:39;;;;;;;;;;;;;;;;;;4996195;28;19921;-50
2022/01/06 15:11:04;;;;;;;;;;;;;;;;;;4996058;28;19922;-50
2022/01/06 15:13:30;;;;;;;;;;;;;;;;;;4993713;28;20442;-53
2022/01/06 15:15:56;;;;;;;;;;;;;;;;;;4994353;28;19932;-50
2022/01/06 15:18:22;;;;;;;;;;;;;;;;;;4993773;28;19921;-50
2022/01/06 15:20:47;;;;;;;;;;;;;;;;;;4995329;28;19928;-52
2022/01/06 15:23:12;;;;;;;;;;;;;;;;;;4995199;28;20027;-51
2022/01/06 15:25:38;;;;;;;;;;;;;;;;;;4994631;28;19926;-51
2022/01/06 15:28:03;;;;;;;;;;;;;;;;;;4994752;28;19960;-53
2022/01/06 15:30:29;;;;;;;;;;;;;;;;;;4994662;28;19932;-49
2022/01/06 15:32:54;;;;;;;;;;;;;;;;;;5026142;28;19952;-50
2022/01/06 15:35:20;;;;;;;;;;;;;;;;;;4995054;28;19940;-51
2022/01/06 15:37:45;;;;;;;;;;;;;;;;;;4996389;28;19921;-50
2022/01/06 15:40:11;;;;;;;;;;;;;;;;;;4995612;28;19933;-51
2022/01/06 15:42:37;;;;;;;;;;;;;;;;;;4995543;28;19935;-49
2022/01/06 15:45:02;;;;;;;;;;;;;;;;;;5028914;28;20009;-50
2022/01/06 15:47:28;;;;;;;;;;;;;;;;;;4996025;28;20972;-53
2022/01/06 15:49:53;;;;;;;;;;;;;;;;;;4997189;28;20655;-52
2022/01/06 15:52:18;;;;;;;;;;;;;;;;;;4996416;28;19925;-50
2022/01/06 15:54:44;;;;;;;;;;;;;;;;;;4995279;28;19929;-52
2022/01/06 15:57:09;;;;;;;;;;;;;;;;;;4995779;28;20413;-49
2022/01/06 15:59:39;;;;;;;;;;;;;;;;;;4992767;28;19956;-53
2022/01/06 16:05:12;;;;;;;;;;;;;;;;;;4995735;28;19963;-50
2022/01/06 16:07:39;;;;;;;;;;;;;;;;;;4993616;28;20048;-49
2022/01/06 16:10:04;;;;;;;;;;;;;;;;;;4996781;28;19948;-50
2022/01/06 16:12:29;;;;;;;;;;;;;;;;;;4993261;28;19925;-49
2022/01/06 16:14:55;;;;;;;;;;;;;;;;;;5024804;28;19933;-52
2022/01/06 16:17:20;;;;;;;;;;;;;;;;;;4993736;28;19926;-50
2022/01/06 16:19:46;;;;;;;;;;;;;;;;;;4994874;28;19926;-50
2022/01/06 16:22:11;;;;;;;;;;;;;;;;;;4992783;28;19922;-51
2022/01/06 16:24:36;;;;;;;;;;;;;;;;;;4993594;28;19926;-52
2022/01/06 16:27:02;;;;;;;;;;;;;;;;;;4993811;28;21319;-50
2022/01/06 16:29:28;;;;;;;;;;;;;;;;;;4991488;28;19932;-50
2022/01/06 16:31:53;;;;;;;;;;;;;;;;;;4996513;28;19948;-53
2022/01/06 16:34:18;;;;;;;;;;;;;;;;;;5025742;28;19933;-54
2022/01/06 16:36:44;;;;;;;;;;;;;;;;;;4995418;28;19964;-51
2022/01/06 16:39:09;;;;;;;;;;;;;;;;;;4993881;28;20771;-52
2022/01/06 16:41:35;;;;;;;;;;;;;;;;;;4993975;28;19921;-53
2022/01/06 16:44:00;;;;;;;;;;;;;;;;;;4995501;28;19968;-51
2022/01/06 16:46:26;;;;;;;;;;;;;;;;;;4996259;28;19921;-52
2022/01/06 16:48:51;;;;;;;;;;;;;;;;;;4996852;28;19929;-54
2022/01/06 16:51:16;;;;;;;;;;;;;;;;;;4996882;28;19922;-52